Time;durP1;ratioP1;P1;durP2;ratioP2;P2;SDS_P1;SDS_P2;PMS_P1;PMS_P2;Temp;Humidity;BMP_temperature;BMP_pressure;BME280_temperature;BME280_humidity;BME280_pressure;Samples;Min_cycle;Max_cycle;Signal;HPM_P1;HPM_P2
2021/10/31 00:00:59;;;;;;;;;9.75;7.00;;;;;;;;5053881;28;45294;-69
2021/10/31 00:03:24;;;;;;;;;8.25;8.25;;;;;;;;5051446;28;45491;-69
2021/10/31 00:05:49;;;;;;;;;6.50;6.50;;;;;;;;5051877;28;46219;-70
2021/10/31 00:08:15;;;;;;;;;7.50;6.50;;;;;;;;5051747;28;45316;-70
2021/10/31 00:10:40;;;;;;;;;5.25;5.25;;;;;;;;5050615;28;45380;-70
2021/10/31 00:13:05;;;;;;;;;7.00;7.00;;;;;;;;5054405;28;45293;-70
2021/10/31 00:15:30;;;;;;;;;7.25;7.25;;;;;;;;5051446;28;46077;-70
2021/10/31 00:17:56;;;;;;;;;6.75;6.75;;;;;;;;5051441;28;45284;-69
2021/10/31 00:20:21;;;;;;;;;8.75;7.50;;;;;;;;5051967;28;45458;-70
2021/10/31 00:22:47;;;;;;;;;7.00;7.00;;;;;;;;5055564;28;45358;-69
2021/10/31 00:25:13;;;;;;;;;6.50;6.25;;;;;;;;5056790;28;45613;-70
2021/10/31 00:27:38;;;;;;;;;9.00;8.00;;;;;;;;5055893;28;45398;-70
2021/10/31 00:30:03;;;;;;;;;9.75;8.00;;;;;;;;5054937;28;45482;-70
2021/10/31 00:32:29;;;;;;;;;10.50;8.00;;;;;;;;5054919;28;45296;-70
2021/10/31 00:34:55;;;;;;;;;6.75;6.75;;;;;;;;5055383;28;45972;-69
2021/10/31 00:37:20;;;;;;;;;6.00;5.50;;;;;;;;5055650;28;45418;-69
2021/10/31 00:39:45;;;;;;;;;6.75;6.75;;;;;;;;5056882;28;45443;-69
2021/10/31 00:42:10;;;;;;;;;7.00;7.00;;;;;;;;5055096;28;45327;-69
2021/10/31 00:44:35;;;;;;;;;8.75;6.25;;;;;;;;5054799;28;46280;-69
2021/10/31 00:47:01;;;;;;;;;9.75;8.50;;;;;;;;5054823;28;45410;-69
2021/10/31 00:49:26;;;;;;;;;6.25;6.25;;;;;;;;5055078;28;45427;-71
2021/10/31 00:51:52;;;;;;;;;7.00;7.00;;;;;;;;5055861;28;45299;-70
2021/10/31 00:54:17;;;;;;;;;7.25;6.25;;;;;;;;5053237;28;45442;-69
2021/10/31 00:56:42;;;;;;;;;7.75;6.50;;;;;;;;5054786;28;45367;-70
2021/10/31 00:59:08;;;;;;;;;8.50;6.50;;;;;;;;5055300;28;45383;-70
2021/10/31 01:01:34;;;;;;;;;9.00;7.75;;;;;;;;5054807;28;45620;-70
2021/10/31 01:03:59;;;;;;;;;7.75;7.75;;;;;;;;5038745;28;46968;-70
2021/10/31 01:06:27;;;;;;;;;8.00;7.00;;;;;;;;5036868;28;45538;-70
2021/10/31 01:09:01;;;;;;;;;9.00;7.50;;;;;;;;5055400;28;45383;-69
2021/10/31 01:11:29;;;;;;;;;7.50;5.25;;;;;;;;5054630;28;45259;-69
2021/10/31 01:13:57;;;;;;;;;8.00;7.00;;;;;;;;5054596;28;45296;-70
2021/10/31 01:16:38;;;;;;;;;10.00;9.00;;;;;;;;5054214;28;45491;-70
2021/10/31 01:19:29;;;;;;;;;7.25;6.00;;;;;;;;5052464;28;45386;-70
2021/10/31 01:21:57;;;;;;;;;10.25;7.00;;;;;;;;4916589;28;45292;-70
2021/10/31 01:24:37;;;;;;;;;8.00;7.00;;;;;;;;4928571;28;46147;-70
2021/10/31 01:27:02;;;;;;;;;8.50;7.25;;;;;;;;4929723;28;45415;-70
2021/10/31 01:29:39;;;;;;;;;5.25;5.00;;;;;;;;4928631;28;45403;-70
2021/10/31 01:32:25;;;;;;;;;6.00;6.00;;;;;;;;4928252;28;45347;-70
2021/10/31 01:35:05;;;;;;;;;7.00;7.00;;;;;;;;4840469;29;47346;-70
2021/10/31 01:37:49;;;;;;;;;7.50;7.50;;;;;;;;4841064;29;46392;-70
2021/10/31 01:40:20;;;;;;;;;7.50;6.25;;;;;;;;4840893;29;45379;-70
2021/10/31 01:42:56;;;;;;;;;10.25;9.25;;;;;;;;4841234;29;45496;-69
2021/10/31 01:45:36;;;;;;;;;6.75;6.75;;;;;;;;4840018;29;47337;-70
2021/10/31 01:48:12;;;;;;;;;9.00;9.00;;;;;;;;4840186;29;45428;-70
2021/10/31 01:50:43;;;;;;;;;7.75;7.75;;;;;;;;4840596;29;45446;-70
2021/10/31 01:53:11;;;;;;;;;7.75;7.00;;;;;;;;4841035;29;45566;-70
2021/10/31 01:55:39;;;;;;;;;8.00;8.00;;;;;;;;4826103;29;47112;-71
2021/10/31 01:58:05;;;;;;;;;6.25;6.25;;;;;;;;4863029;28;45501;-70
2021/10/31 02:00:31;;;;;;;;;9.00;6.75;;;;;;;;4929320;28;45386;-70
2021/10/31 02:03:01;;;;;;;;;8.00;6.00;;;;;;;;4929887;28;45666;-70
2021/10/31 02:05:28;;;;;;;;;7.00;6.75;;;;;;;;4929429;28;45544;-70
2021/10/31 02:07:54;;;;;;;;;7.50;7.50;;;;;;;;4932385;28;45557;-71
2021/10/31 02:10:21;;;;;;;;;7.50;7.50;;;;;;;;4934902;28;45500;-69
2021/10/31 02:12:47;;;;;;;;;7.75;7.75;;;;;;;;5032057;28;45574;-71
2021/10/31 02:15:15;;;;;;;;;10.75;9.00;;;;;;;;5053437;28;46132;-70
2021/10/31 02:17:40;;;;;;;;;9.75;8.00;;;;;;;;5054004;28;45505;-70
2021/10/31 02:20:06;;;;;;;;;8.75;7.75;;;;;;;;5053931;28;45327;-70
2021/10/31 02:22:31;;;;;;;;;8.50;8.50;;;;;;;;5053665;28;45298;-70
2021/10/31 02:24:59;;;;;;;;;11.50;9.00;;;;;;;;5055557;28;46968;-70
2021/10/31 02:27:24;;;;;;;;;7.50;7.50;;;;;;;;5053664;28;45478;-70
2021/10/31 02:29:53;;;;;;;;;7.75;7.75;;;;;;;;5053368;28;45333;-70
2021/10/31 02:32:21;;;;;;;;;8.25;8.00;;;;;;;;5053465;28;45484;-70
2021/10/31 02:34:46;;;;;;;;;9.00;9.00;;;;;;;;5053428;28;47167;-70
2021/10/31 02:37:12;;;;;;;;;9.50;8.00;;;;;;;;5054948;28;45415;-71
2021/10/31 02:39:37;;;;;;;;;10.00;8.50;;;;;;;;5054350;28;45391;-70
2021/10/31 02:42:03;;;;;;;;;6.00;6.00;;;;;;;;5053327;28;45522;-71
2021/10/31 02:44:28;;;;;;;;;11.75;8.25;;;;;;;;5051708;28;45454;-70
2021/10/31 02:46:53;;;;;;;;;11.50;7.75;;;;;;;;5051938;28;45557;-70
2021/10/31 02:49:19;;;;;;;;;12.25;12.25;;;;;;;;5054399;28;45331;-70
2021/10/31 02:51:51;;;;;;;;;14.25;10.25;;;;;;;;5053266;28;45699;-70
2021/10/31 02:54:36;;;;;;;;;12.00;11.00;;;;;;;;5052870;28;47195;-70
2021/10/31 02:57:06;;;;;;;;;13.75;10.25;;;;;;;;4972618;28;45620;-70
2021/10/31 02:59:46;;;;;;;;;13.75;12.25;;;;;;;;4969749;28;45775;-70
2021/10/31 03:02:12;;;;;;;;;11.50;10.75;;;;;;;;4961710;28;45569;-69
2021/10/31 03:04:38;;;;;;;;;11.75;10.50;;;;;;;;4957706;28;46586;-69
2021/10/31 03:07:04;;;;;;;;;13.00;11.75;;;;;;;;4958031;28;45623;-69
2021/10/31 03:09:29;;;;;;;;;13.75;11.50;;;;;;;;4961477;28;45371;-69
2021/10/31 03:12:01;;;;;;;;;14.00;12.25;;;;;;;;4961406;28;45499;-69
2021/10/31 03:14:26;;;;;;;;;11.00;10.00;;;;;;;;4961656;28;46139;-70
2021/10/31 03:16:52;;;;;;;;;13.00;13.00;;;;;;;;4959372;28;45396;-69
2021/10/31 03:19:17;;;;;;;;;13.50;11.50;;;;;;;;4957321;28;45486;-69
2021/10/31 03:21:42;;;;;;;;;16.25;16.25;;;;;;;;4960880;28;45746;-69
2021/10/31 03:24:08;;;;;;;;;12.50;9.50;;;;;;;;4961558;28;46053;-68
2021/10/31 03:26:33;;;;;;;;;14.75;12.00;;;;;;;;4961361;28;45390;-68
2021/10/31 03:28:58;;;;;;;;;13.75;13.75;;;;;;;;4960520;28;45513;-68
2021/10/31 03:31:23;;;;;;;;;14.75;13.25;;;;;;;;4972868;28;45465;-69
2021/10/31 03:33:49;;;;;;;;;13.00;12.25;;;;;;;;4988401;28;45432;-69
2021/10/31 03:36:14;;;;;;;;;13.50;10.75;;;;;;;;5050306;28;45390;-70
2021/10/31 03:38:39;;;;;;;;;10.25;9.25;;;;;;;;5052565;28;45419;-69
2021/10/31 03:41:04;;;;;;;;;10.00;9.50;;;;;;;;5052403;28;45390;-69
2021/10/31 03:43:30;;;;;;;;;11.75;10.75;;;;;;;;5034468;28;48223;-68
2021/10/31 03:45:55;;;;;;;;;11.00;11.00;;;;;;;;5054919;28;45337;-70
2021/10/31 03:48:20;;;;;;;;;9.00;8.50;;;;;;;;5052649;28;45757;-69
2021/10/31 03:50:47;;;;;;;;;8.75;7.25;;;;;;;;5052621;28;45383;-71
2021/10/31 03:53:12;;;;;;;;;14.00;11.00;;;;;;;;5052396;28;45592;-71
2021/10/31 03:55:37;;;;;;;;;14.50;11.50;;;;;;;;5052606;28;45590;-70
2021/10/31 03:58:02;;;;;;;;;15.50;15.50;;;;;;;;5058504;28;45367;-70
2021/10/31 04:00:28;;;;;;;;;15.00;13.50;;;;;;;;5056246;28;45618;-70
2021/10/31 04:02:53;;;;;;;;;13.00;13.00;;;;;;;;5055956;28;46233;-69
2021/10/31 04:05:18;;;;;;;;;17.50;15.50;;;;;;;;5054637;28;45395;-70
2021/10/31 04:07:43;;;;;;;;;19.25;17.75;;;;;;;;5054931;28;45415;-69
2021/10/31 04:10:09;;;;;;;;;16.50;14.75;;;;;;;;5057263;28;45299;-70
2021/10/31 04:12:35;;;;;;;;;25.25;18.75;;;;;;;;5055104;28;46190;-69
2021/10/31 04:15:00;;;;;;;;;16.50;16.00;;;;;;;;5055948;28;45749;-69
2021/10/31 04:17:25;;;;;;;;;20.25;19.50;;;;;;;;5056010;28;45416;-69
2021/10/31 04:19:50;;;;;;;;;21.75;19.00;;;;;;;;5055863;28;45500;-70
2021/10/31 04:22:16;;;;;;;;;22.50;19.25;;;;;;;;5056492;28;46866;-69
2021/10/31 04:24:41;;;;;;;;;24.25;17.50;;;;;;;;5056675;28;45528;-69
2021/10/31 04:27:07;;;;;;;;;23.75;22.75;;;;;;;;5037641;28;45388;-69
2021/10/31 04:29:32;;;;;;;;;22.25;21.00;;;;;;;;5055483;28;45505;-69
2021/10/31 04:31:57;;;;;;;;;21.50;20.00;;;;;;;;5037541;28;48097;-68
2021/10/31 04:34:22;;;;;;;;;15.75;13.75;;;;;;;;5055565;28;45560;-69
2021/10/31 04:36:48;;;;;;;;;23.50;20.25;;;;;;;;5057596;28;45497;-68
2021/10/31 04:39:14;;;;;;;;;22.25;16.25;;;;;;;;5055190;28;45513;-68
2021/10/31 04:41:42;;;;;;;;;17.50;17.50;;;;;;;;5055594;28;45544;-70
2021/10/31 04:44:07;;;;;;;;;22.25;18.75;;;;;;;;5054088;28;45520;-70
2021/10/31 04:46:32;;;;;;;;;18.75;17.50;;;;;;;;5054725;28;45356;-70
2021/10/31 04:48:58;;;;;;;;;15.75;15.75;;;;;;;;5056865;28;45277;-69
2021/10/31 04:51:23;;;;;;;;;15.00;14.00;;;;;;;;5055072;28;45450;-70
2021/10/31 04:53:48;;;;;;;;;12.25;12.25;;;;;;;;5054915;28;45469;-70
2021/10/31 04:56:13;;;;;;;;;19.00;17.25;;;;;;;;5055347;28;45406;-69
2021/10/31 04:58:39;;;;;;;;;19.75;18.00;;;;;;;;5055320;28;45280;-69
2021/10/31 05:01:04;;;;;;;;;15.00;13.25;;;;;;;;5057325;28;45324;-69
2021/10/31 05:03:29;;;;;;;;;14.50;11.50;;;;;;;;5055081;28;45462;-69
2021/10/31 05:05:54;;;;;;;;;13.50;9.25;;;;;;;;5055200;28;45331;-69
2021/10/31 05:08:20;;;;;;;;;18.00;16.25;;;;;;;;5053683;28;45376;-70
2021/10/31 05:10:45;;;;;;;;;20.00;15.75;;;;;;;;5036982;28;47093;-69
2021/10/31 05:13:10;;;;;;;;;21.00;19.50;;;;;;;;5056389;28;45554;-70
2021/10/31 05:15:35;;;;;;;;;20.50;18.25;;;;;;;;5055932;28;45438;-70
2021/10/31 05:18:01;;;;;;;;;17.75;17.00;;;;;;;;5054976;28;45388;-69
2021/10/31 05:20:26;;;;;;;;;22.00;17.25;;;;;;;;5054758;28;46064;-70
2021/10/31 05:22:51;;;;;;;;;19.25;17.75;;;;;;;;5053048;28;45517;-71
2021/10/31 05:25:16;;;;;;;;;20.00;18.75;;;;;;;;5056250;28;45387;-71
2021/10/31 05:27:42;;;;;;;;;17.75;15.50;;;;;;;;5054423;28;45533;-69
2021/10/31 05:30:08;;;;;;;;;16.00;12.75;;;;;;;;5054576;28;45370;-68
2021/10/31 05:32:36;;;;;;;;;15.75;14.00;;;;;;;;5054518;28;45376;-70
2021/10/31 05:35:02;;;;;;;;;12.00;12.00;;;;;;;;5054996;28;45263;-70
2021/10/31 05:37:39;;;;;;;;;13.50;12.25;;;;;;;;5054428;28;45487;-69
2021/10/31 05:40:05;;;;;;;;;17.00;14.00;;;;;;;;5038258;28;47317;-70
2021/10/31 05:42:31;;;;;;;;;17.75;16.25;;;;;;;;5054556;28;45489;-69
2021/10/31 05:44:56;;;;;;;;;10.25;10.25;;;;;;;;5054093;28;45340;-70
2021/10/31 05:47:22;;;;;;;;;9.75;8.25;;;;;;;;5054310;28;45426;-70
2021/10/31 05:49:48;;;;;;;;;12.25;10.75;;;;;;;;5054209;28;45927;-69
2021/10/31 05:52:13;;;;;;;;;12.50;9.25;;;;;;;;5055380;28;45271;-69
2021/10/31 05:54:38;;;;;;;;;5.00;5.00;;;;;;;;5055086;28;45396;-69
2021/10/31 05:57:03;;;;;;;;;9.75;9.75;;;;;;;;5053807;28;45453;-69
2021/10/31 05:59:28;;;;;;;;;9.00;9.00;;;;;;;;5054019;28;46198;-69
2021/10/31 06:01:54;;;;;;;;;7.00;7.00;;;;;;;;5052709;28;45406;-70
2021/10/31 06:04:19;;;;;;;;;9.25;9.25;;;;;;;;5055273;28;45445;-68
2021/10/31 06:06:46;;;;;;;;;7.75;7.75;;;;;;;;5053681;28;45347;-69
2021/10/31 06:09:12;;;;;;;;;4.75;4.00;;;;;;;;5053698;28;46103;-68
2021/10/31 06:11:37;;;;;;;;;7.50;7.50;;;;;;;;5053463;28;45486;-69
2021/10/31 06:14:02;;;;;;;;;8.75;8.75;;;;;;;;5053854;28;47376;-69
2021/10/31 06:16:27;;;;;;;;;10.75;8.25;;;;;;;;5054277;28;45237;-70
2021/10/31 06:18:53;;;;;;;;;7.00;6.50;;;;;;;;5055689;28;45855;-69
2021/10/31 06:21:18;;;;;;;;;10.25;7.75;;;;;;;;5053541;28;45348;-69
2021/10/31 06:23:44;;;;;;;;;5.25;5.25;;;;;;;;5053467;28;45272;-69
2021/10/31 06:26:09;;;;;;;;;7.50;7.00;;;;;;;;5053720;28;45520;-69
2021/10/31 06:28:34;;;;;;;;;8.00;6.75;;;;;;;;5053282;28;47229;-69
2021/10/31 06:31:00;;;;;;;;;8.25;7.00;;;;;;;;5055751;28;45367;-69
2021/10/31 06:33:26;;;;;;;;;8.75;8.75;;;;;;;;5053280;28;45488;-70
2021/10/31 06:35:51;;;;;;;;;6.25;6.25;;;;;;;;5052106;28;45638;-70
2021/10/31 06:38:16;;;;;;;;;6.00;6.00;;;;;;;;5053363;28;45601;-70
2021/10/31 06:40:41;;;;;;;;;6.00;6.00;;;;;;;;5052050;28;45378;-70
2021/10/31 06:43:06;;;;;;;;;7.25;7.00;;;;;;;;5055344;28;45497;-70
2021/10/31 06:45:32;;;;;;;;;6.25;6.25;;;;;;;;5052107;28;45308;-70
2021/10/31 06:47:57;;;;;;;;;9.00;8.75;;;;;;;;5052626;28;45403;-70
2021/10/31 06:50:22;;;;;;;;;8.75;7.50;;;;;;;;5052753;28;45631;-69
2021/10/31 06:52:49;;;;;;;;;10.25;8.50;;;;;;;;5053401;28;45383;-70
2021/10/31 06:55:15;;;;;;;;;7.50;6.00;;;;;;;;5054014;28;45368;-70
2021/10/31 06:57:41;;;;;;;;;7.50;7.50;;;;;;;;5053842;28;46244;-70
2021/10/31 07:00:06;;;;;;;;;10.75;10.00;;;;;;;;5052864;28;45257;-70
2021/10/31 07:02:32;;;;;;;;;12.00;10.50;;;;;;;;5052804;28;45383;-70
2021/10/31 07:04:57;;;;;;;;;8.25;6.25;;;;;;;;5052916;28;45450;-70
2021/10/31 07:07:22;;;;;;;;;9.50;9.50;;;;;;;;5052875;28;47193;-70
2021/10/31 07:09:47;;;;;;;;;10.50;9.50;;;;;;;;5054596;28;45355;-69
2021/10/31 07:12:13;;;;;;;;;14.25;8.75;;;;;;;;5052470;28;45335;-71
2021/10/31 07:14:38;;;;;;;;;6.75;6.00;;;;;;;;5052529;28;45538;-69
2021/10/31 07:17:03;;;;;;;;;8.25;7.00;;;;;;;;5052573;28;46332;-69
2021/10/31 07:19:29;;;;;;;;;9.00;8.00;;;;;;;;5051775;28;45292;-69
2021/10/31 07:21:54;;;;;;;;;8.25;8.25;;;;;;;;5053335;28;45398;-69
2021/10/31 07:24:19;;;;;;;;;9.50;8.75;;;;;;;;5051120;28;45348;-70
2021/10/31 07:26:44;;;;;;;;;7.50;6.50;;;;;;;;5051949;28;47224;-69
2021/10/31 07:29:09;;;;;;;;;10.00;8.50;;;;;;;;5052466;28;45377;-69
2021/10/31 07:31:36;;;;;;;;;8.50;7.50;;;;;;;;5038639;28;45550;-69
2021/10/31 07:34:02;;;;;;;;;10.75;8.75;;;;;;;;5057046;28;45465;-69
2021/10/31 07:36:27;;;;;;;;;7.75;5.75;;;;;;;;5055273;28;46929;-69
2021/10/31 07:38:53;;;;;;;;;12.00;10.75;;;;;;;;5055667;28;45332;-69
2021/10/31 07:41:18;;;;;;;;;12.25;9.75;;;;;;;;5055654;28;45275;-70
2021/10/31 07:43:43;;;;;;;;;10.25;8.75;;;;;;;;5055587;28;45491;-70
2021/10/31 07:46:08;;;;;;;;;7.75;7.50;;;;;;;;5057132;28;45348;-69
2021/10/31 07:48:34;;;;;;;;;7.75;7.75;;;;;;;;5055626;28;45285;-71
2021/10/31 07:51:00;;;;;;;;;9.00;7.50;;;;;;;;5055482;28;45287;-70
2021/10/31 07:53:25;;;;;;;;;9.00;9.00;;;;;;;;5055423;28;45449;-70
2021/10/31 07:55:52;;;;;;;;;10.00;8.75;;;;;;;;5055583;28;46020;-70
2021/10/31 07:58:20;;;;;;;;;9.25;7.75;;;;;;;;5055876;28;45296;-70
2021/10/31 08:00:46;;;;;;;;;10.50;9.50;;;;;;;;5055098;28;45478;-70
2021/10/31 08:03:11;;;;;;;;;11.25;9.50;;;;;;;;5053854;28;45572;-71
2021/10/31 08:05:38;;;;;;;;;11.50;8.75;;;;;;;;5055176;28;46110;-69
2021/10/31 08:08:03;;;;;;;;;10.75;10.75;;;;;;;;5054889;28;45435;-69
2021/10/31 08:10:28;;;;;;;;;7.00;5.25;;;;;;;;5055044;28;45401;-69
2021/10/31 08:12:54;;;;;;;;;8.75;6.75;;;;;;;;5057781;28;45395;-70
2021/10/31 08:15:19;;;;;;;;;9.00;8.00;;;;;;;;5038478;28;48053;-71
2021/10/31 08:17:45;;;;;;;;;7.25;7.00;;;;;;;;5051576;28;45570;-71
2021/10/31 08:20:10;;;;;;;;;7.50;5.75;;;;;;;;5052027;28;45382;-71
2021/10/31 08:22:36;;;;;;;;;8.25;8.25;;;;;;;;5056774;28;45405;-71
2021/10/31 08:25:01;;;;;;;;;7.00;6.00;;;;;;;;5056893;28;46229;-71
2021/10/31 08:27:28;;;;;;;;;9.25;7.00;;;;;;;;5054792;28;45526;-71
2021/10/31 08:29:53;;;;;;;;;8.25;7.25;;;;;;;;5036985;28;45402;-71
2021/10/31 08:32:21;;;;;;;;;11.00;6.50;;;;;;;;5054922;28;45527;-73
2021/10/31 08:34:46;;;;;;;;;5.00;5.00;;;;;;;;5054785;28;45478;-72
2021/10/31 08:37:11;;;;;;;;;5.75;5.25;;;;;;;;5055879;28;45434;-75
2021/10/31 08:39:36;;;;;;;;;6.50;6.50;;;;;;;;5053996;28;45410;-72
2021/10/31 08:42:02;;;;;;;;;8.25;7.25;;;;;;;;5035574;28;45325;-72
2021/10/31 08:44:27;;;;;;;;;6.25;6.25;;;;;;;;5054708;28;45834;-74
2021/10/31 08:46:52;;;;;;;;;9.75;6.75;;;;;;;;5054564;28;45425;-74
2021/10/31 08:49:19;;;;;;;;;5.00;4.25;;;;;;;;5055369;28;45538;-73
2021/10/31 08:51:44;;;;;;;;;4.25;3.25;;;;;;;;5056544;28;45647;-75
2021/10/31 08:54:10;;;;;;;;;5.50;5.50;;;;;;;;5054584;28;46980;-72
2021/10/31 08:56:35;;;;;;;;;11.25;8.00;;;;;;;;5054531;28;45578;-74
2021/10/31 08:59:01;;;;;;;;;4.75;4.75;;;;;;;;5053899;28;45380;-75
2021/10/31 09:01:27;;;;;;;;;6.25;5.00;;;;;;;;5054044;28;45412;-74
2021/10/31 09:03:53;;;;;;;;;5.75;3.50;;;;;;;;5056090;28;46029;-73
2021/10/31 09:06:19;;;;;;;;;7.00;6.50;;;;;;;;5053933;28;45439;-73
2021/10/31 09:08:45;;;;;;;;;6.75;6.00;;;;;;;;5052098;28;45556;-76
2021/10/31 09:11:10;;;;;;;;;7.00;6.00;;;;;;;;5053477;28;45474;-72
2021/10/31 09:13:35;;;;;;;;;7.25;7.25;;;;;;;;5038320;28;45375;-72
2021/10/31 09:16:04;;;;;;;;;7.75;7.75;;;;;;;;5056029;28;45475;-74
2021/10/31 09:18:30;;;;;;;;;4.75;4.75;;;;;;;;5052833;28;45295;-72
2021/10/31 09:20:55;;;;;;;;;3.00;2.50;;;;;;;;5052400;28;45356;-72
2021/10/31 09:23:21;;;;;;;;;4.50;4.50;;;;;;;;5053234;28;45391;-72
2021/10/31 09:25:46;;;;;;;;;7.75;7.00;;;;;;;;5053254;28;45443;-72
2021/10/31 09:28:11;;;;;;;;;6.25;6.25;;;;;;;;5054925;28;45225;-72
2021/10/31 09:30:38;;;;;;;;;9.50;6.75;;;;;;;;5053676;28;45249;-72
2021/10/31 09:33:04;;;;;;;;;5.50;5.50;;;;;;;;5052788;28;46293;-74
2021/10/31 09:35:31;;;;;;;;;6.50;6.50;;;;;;;;5052790;28;45505;-73
2021/10/31 09:38:04;;;;;;;;;7.50;7.00;;;;;;;;5053272;28;45473;-74
2021/10/31 09:40:30;;;;;;;;;4.50;4.00;;;;;;;;5053041;28;45284;-73
2021/10/31 09:42:56;;;;;;;;;8.50;5.00;;;;;;;;5055538;28;46068;-75
2021/10/31 09:45:22;;;;;;;;;7.25;7.25;;;;;;;;5052836;28;45504;-74
2021/10/31 09:47:55;;;;;;;;;3.50;3.50;;;;;;;;5053463;28;45469;-74
2021/10/31 09:50:21;;;;;;;;;3.25;3.25;;;;;;;;5053033;28;45568;-72
2021/10/31 09:52:46;;;;;;;;;3.75;3.75;;;;;;;;5052787;28;45839;-72
2021/10/31 09:55:12;;;;;;;;;8.00;6.25;;;;;;;;5054119;28;45433;-76
2021/10/31 09:57:37;;;;;;;;;4.25;4.25;;;;;;;;5052445;28;45520;-74
2021/10/31 10:00:04;;;;;;;;;2.50;2.00;;;;;;;;5051055;28;45465;-76
2021/10/31 10:05:05;;;;;;;;;3.00;3.00;;;;;;;;5053152;28;45388;-74
2021/10/31 10:07:31;;;;;;;;;4.25;3.00;;;;;;;;5053530;28;45310;-74
2021/10/31 10:09:56;;;;;;;;;3.00;3.00;;;;;;;;5055359;28;45358;-74
2021/10/31 10:12:23;;;;;;;;;5.75;4.00;;;;;;;;5052468;28;46267;-75
2021/10/31 10:14:56;;;;;;;;;2.50;2.00;;;;;;;;5053034;28;45554;-73
2021/10/31 10:17:21;;;;;;;;;1.25;1.25;;;;;;;;5052864;28;45354;-74
2021/10/31 10:19:52;;;;;;;;;1.75;1.75;;;;;;;;5052764;28;45598;-74
2021/10/31 10:22:18;;;;;;;;;2.00;2.00;;;;;;;;5053455;28;46647;-74
2021/10/31 10:24:48;;;;;;;;;3.00;3.00;;;;;;;;5053943;28;45320;-73
2021/10/31 10:27:14;;;;;;;;;4.50;2.75;;;;;;;;5033918;28;45670;-76
2021/10/31 10:29:41;;;;;;;;;5.50;3.00;;;;;;;;5052384;28;45428;-74
2021/10/31 10:32:14;;;;;;;;;3.50;3.50;;;;;;;;5052966;28;45569;-75
2021/10/31 10:34:58;;;;;;;;;2.50;2.50;;;;;;;;5035287;28;45289;-74
2021/10/31 10:37:26;;;;;;;;;2.00;2.00;;;;;;;;5053401;28;45221;-73
2021/10/31 10:39:54;;;;;;;;;2.25;2.25;;;;;;;;5053217;28;45539;-75
2021/10/31 10:42:20;;;;;;;;;2.00;2.00;;;;;;;;5052068;28;47262;-75
2021/10/31 10:44:46;;;;;;;;;4.00;3.00;;;;;;;;5052152;28;45339;-74
2021/10/31 10:47:18;;;;;;;;;2.00;2.00;;;;;;;;5052156;28;45421;-74
2021/10/31 10:49:44;;;;;;;;;1.67;1.67;;;;;;;;5052415;28;45613;-74
2021/10/31 10:52:24;;;;;;;;;3.25;2.25;;;;;;;;5053628;28;46371;-75
2021/10/31 10:55:19;;;;;;;;;1.67;1.67;;;;;;;;5052007;28;45378;-74
2021/10/31 10:57:45;;;;;;;;;2.00;2.00;;;;;;;;5032662;28;45391;-74
2021/10/31 11:00:12;;;;;;;;;1.00;1.00;;;;;;;;5052393;28;45591;-75
2021/10/31 11:02:38;;;;;;;;;2.67;2.67;;;;;;;;5052153;28;45924;-74
2021/10/31 11:05:06;;;;;;;;;3.00;2.00;;;;;;;;5051236;28;45398;-74
2021/10/31 11:07:33;;;;;;;;;2.50;2.00;;;;;;;;5033611;28;45311;-74
2021/10/31 11:09:58;;;;;;;;;3.75;2.00;;;;;;;;5054141;28;45246;-76
2021/10/31 11:12:26;;;;;;;;;3.00;2.67;;;;;;;;5051823;28;46195;-75
2021/10/31 11:14:52;;;;;;;;;0.00;0.00;;;;;;;;5050078;28;45388;-74
2021/10/31 11:17:18;;;;;;;;;3.00;2.00;;;;;;;;5051853;28;45465;-74
2021/10/31 11:19:43;;;;;;;;;4.00;2.67;;;;;;;;5052412;28;45383;-75
2021/10/31 11:22:09;;;;;;;;;3.00;3.00;;;;;;;;5053481;28;46103;-75
2021/10/31 11:24:35;;;;;;;;;1.33;1.33;;;;;;;;5052659;28;45474;-74
2021/10/31 11:27:01;;;;;;;;;1.00;1.00;;;;;;;;5051646;28;45432;-75
2021/10/31 11:29:30;;;;;;;;;2.00;2.00;;;;;;;;5033006;28;45545;-75
2021/10/31 11:31:55;;;;;;;;;1.00;1.00;;;;;;;;5051502;28;46259;-75
2021/10/31 11:34:21;;;;;;;;;1.67;1.67;;;;;;;;5051637;28;45360;-73
2021/10/31 11:36:47;;;;;;;;;2.00;2.00;;;;;;;;5051682;28;45368;-74
2021/10/31 11:39:13;;;;;;;;;1.75;1.75;;;;;;;;5051485;28;45493;-74
2021/10/31 11:41:38;;;;;;;;;1.00;1.00;;;;;;;;5051124;28;46060;-75
2021/10/31 11:44:04;;;;;;;;;2.00;2.00;;;;;;;;5051663;28;45441;-75
2021/10/31 11:46:43;;;;;;;;;0.00;0.00;;;;;;;;5051788;28;45496;-75
2021/10/31 11:49:09;;;;;;;;;3.00;2.67;;;;;;;;5049861;28;45551;-75
2021/10/31 11:51:44;;;;;;;;;2.00;2.00;;;;;;;;5049644;28;45699;-76
2021/10/31 11:54:12;;;;;;;;;0.50;0.50;;;;;;;;5049877;28;45404;-76
2021/10/31 11:56:49;;;;;;;;;1.00;1.00;;;;;;;;5050263;28;47103;-73
2021/10/31 11:59:16;;;;;;;;;1.50;1.50;;;;;;;;5051659;28;47758;-75
2021/10/31 12:01:45;;;;;;;;;3.00;2.00;;;;;;;;5051415;28;47000;-74
2021/10/31 12:04:13;;;;;;;;;3.00;3.00;;;;;;;;5052875;28;45426;-75
2021/10/31 12:06:39;;;;;;;;;4.00;4.00;;;;;;;;5052437;28;45474;-74
2021/10/31 12:09:06;;;;;;;;;2.00;2.00;;;;;;;;5050713;28;45299;-74
2021/10/31 12:11:31;;;;;;;;;4.75;4.00;;;;;;;;5051099;28;45451;-74
2021/10/31 12:14:01;;;;;;;;;3.00;3.00;;;;;;;;5050868;28;45432;-74
2021/10/31 12:16:27;;;;;;;;;3.00;3.00;;;;;;;;5051897;28;45306;-74
2021/10/31 12:18:54;;;;;;;;;3.00;3.00;;;;;;;;5038516;28;45612;-74
2021/10/31 12:21:22;;;;;;;;;1.50;1.50;;;;;;;;5054197;28;47182;-75
2021/10/31 12:23:53;;;;;;;;;5.00;4.00;;;;;;;;5053951;28;45340;-75
2021/10/31 12:26:20;;;;;;;;;3.00;3.00;;;;;;;;5054582;28;45504;-75
2021/10/31 12:28:45;;;;;;;;;4.25;2.75;;;;;;;;5054322;28;45541;-73
2021/10/31 12:31:24;;;;;;;;;3.75;3.25;;;;;;;;5055992;28;47301;-73
2021/10/31 12:34:08;;;;;;;;;3.00;3.00;;;;;;;;5054666;28;45639;-75
2021/10/31 12:36:33;;;;;;;;;4.00;4.00;;;;;;;;5055372;28;45383;-74
2021/10/31 12:38:59;;;;;;;;;2.00;2.00;;;;;;;;5054546;28;45510;-74
2021/10/31 12:41:34;;;;;;;;;3.00;2.00;;;;;;;;5036259;28;47423;-74
2021/10/31 12:44:10;;;;;;;;;2.50;2.25;;;;;;;;5054542;28;45404;-74
2021/10/31 12:46:35;;;;;;;;;2.00;2.00;;;;;;;;5054227;28;45295;-74
2021/10/31 12:49:02;;;;;;;;;5.50;5.50;;;;;;;;5057145;28;45518;-76
2021/10/31 12:51:45;;;;;;;;;2.75;2.75;;;;;;;;5053388;28;46234;-73
2021/10/31 12:54:10;;;;;;;;;2.00;1.25;;;;;;;;5034838;28;45556;-75
2021/10/31 12:56:36;;;;;;;;;4.75;3.25;;;;;;;;5053962;28;45465;-75
2021/10/31 12:59:11;;;;;;;;;3.75;3.00;;;;;;;;5054115;28;45357;-75
2021/10/31 13:01:37;;;;;;;;;1.00;1.00;;;;;;;;5037984;28;46150;-74
2021/10/31 13:04:03;;;;;;;;;3.25;2.50;;;;;;;;5055979;28;45553;-74
2021/10/31 13:06:29;;;;;;;;;3.00;2.00;;;;;;;;5053633;28;45305;-73
2021/10/31 13:08:55;;;;;;;;;1.00;1.00;;;;;;;;5054060;28;45403;-74
2021/10/31 13:11:23;;;;;;;;;2.00;2.00;;;;;;;;5052500;28;47035;-75
2021/10/31 13:13:48;;;;;;;;;3.50;3.50;;;;;;;;5052206;28;45559;-74
2021/10/31 13:16:14;;;;;;;;;4.00;4.00;;;;;;;;5055551;28;45297;-75
2021/10/31 13:18:39;;;;;;;;;2.00;2.00;;;;;;;;5055013;28;45535;-75
2021/10/31 13:21:06;;;;;;;;;2.25;2.25;;;;;;;;5053663;28;46038;-74
2021/10/31 13:23:34;;;;;;;;;2.00;2.00;;;;;;;;5054069;28;45380;-75
2021/10/31 13:26:01;;;;;;;;;2.00;2.00;;;;;;;;5053905;28;45489;-75
2021/10/31 13:28:37;;;;;;;;;5.00;5.00;;;;;;;;5053071;28;45479;-75
2021/10/31 13:31:02;;;;;;;;;2.00;2.00;;;;;;;;5055311;28;45308;-75
2021/10/31 13:33:37;;;;;;;;;3.00;1.00;;;;;;;;5053326;28;45217;-75
2021/10/31 13:36:06;;;;;;;;;2.50;1.00;;;;;;;;5053610;28;45512;-75
2021/10/31 13:38:44;;;;;;;;;5.25;3.00;;;;;;;;5053727;28;45362;-75
2021/10/31 13:41:09;;;;;;;;;4.00;3.00;;;;;;;;5035066;28;46330;-75
2021/10/31 13:43:34;;;;;;;;;1.75;1.75;;;;;;;;5053235;28;45352;-75
2021/10/31 13:46:00;;;;;;;;;2.00;2.00;;;;;;;;5055112;28;45247;-74
2021/10/31 13:48:29;;;;;;;;;2.25;2.25;;;;;;;;5053390;28;45395;-76
2021/10/31 13:50:55;;;;;;;;;5.00;4.00;;;;;;;;5058634;28;45225;-75
2021/10/31 13:53:20;;;;;;;;;1.50;1.00;;;;;;;;5052366;28;45272;-74
2021/10/31 13:55:48;;;;;;;;;1.50;0.00;;;;;;;;5053758;28;45350;-73
2021/10/31 13:58:13;;;;;;;;;1.75;1.75;;;;;;;;5054568;28;45475;-75
2021/10/31 14:00:43;;;;;;;;;2.25;1.25;;;;;;;;5053705;28;47167;-75
2021/10/31 14:03:16;;;;;;;;;2.50;2.50;;;;;;;;5052967;28;45343;-75
2021/10/31 14:05:44;;;;;;;;;1.25;1.25;;;;;;;;5052827;28;45488;-75
2021/10/31 14:08:09;;;;;;;;;1.25;1.25;;;;;;;;5052984;28;45329;-75
2021/10/31 14:10:43;;;;;;;;;1.00;1.00;;;;;;;;5052988;28;46100;-75
2021/10/31 14:13:09;;;;;;;;;3.00;3.00;;;;;;;;5050887;28;45700;-74
2021/10/31 14:15:35;;;;;;;;;3.75;3.75;;;;;;;;5051784;28;45329;-74
2021/10/31 14:18:01;;;;;;;;;4.75;4.75;;;;;;;;5053222;28;45514;-75
2021/10/31 14:20:31;;;;;;;;;3.00;2.00;;;;;;;;5051504;28;46292;-73
2021/10/31 14:22:56;;;;;;;;;3.00;2.50;;;;;;;;5034554;28;45308;-75
2021/10/31 14:25:25;;;;;;;;;4.00;3.00;;;;;;;;5053276;28;45371;-73
2021/10/31 14:27:51;;;;;;;;;1.00;1.00;;;;;;;;5053293;28;45458;-75
2021/10/31 14:30:23;;;;;;;;;1.00;1.00;;;;;;;;5051104;28;45553;-74
2021/10/31 14:32:51;;;;;;;;;5.00;3.25;;;;;;;;5051733;28;45348;-74
2021/10/31 14:35:18;;;;;;;;;2.00;2.00;;;;;;;;5052722;28;45509;-75
2021/10/31 14:38:02;;;;;;;;;1.50;1.50;;;;;;;;5034811;28;45470;-75